Content
SEND FEEDBACK

Daily
Averages
Monthly
Summary
Norway

ROSSVOLL, NORWAY


Home > Europe > Norway
Elevation: 230 feet     Latitude: 66 22N     Longitude: 014 18E

WEATHER
 
SELECT A DAY
Number of Records: 99,683;   Date Range: 7/1/96 - 10/20/14
 
SHARE

PRINT THIS DATA

[ ← Previous Day ]
WEATHER ALMANAC - JANUARY 31, 2013
[ Next Day → ]
[ °C ]   °F
Weather ElementAverageHighLow
Temperature22.2 °F26.6 °F (6:20 am)17.6 °F (3:20 pm)
Dewpoint20.3 °F24.8 °F (6:20 am)15.8 °F (3:20 pm)
Humidity92.8 %93 % (6:20 am)86 % (2:20 pm)
Barometer28.88 in28.94 in (9:50 pm)28.77 in (6:20 am)
Wind Speed2.1 mph5.8 mph (3:50 pm)
Weather ElementAverage
Visibility5.5 mi
Wind DirectionENE (71 °)

Weather ElementTotal
Precipitation---
Heating Degree Days42.9 (Base 65)
Averaged from 31 records on January 31, 2013
WEATHER CONDITIONS BREAKOUT
WIND DIRECTION BREAKOUT
WEATHER BY HOUR - JANUARY 31, 2013
[ °C ]   °F
Local TimeTemperatureDewpointHumidityBarometerVisibilityWind DirectionWind SpeedGust SpeedPrecipitationEventsConditions
6:20 AM26.6 °F24.8 °F93 %28.77 in6.2 miSouth (180°)2.3 mphSnowLight Snow Showers
6:50 AM26.6 °F24.8 °F93 %28.80 in6.2 miSSW (210°)1.2 mphSnowLight Snow Showers
7:20 AM24.8 °F23.0 °F93 %28.80 in6.2 miSSW (200°)1.2 mphSnowLight Snow Showers
7:50 AM24.8 °F23.0 °F93 %28.80 in6.2 miSSE (160°)1.2 mphSnowLight Snow Showers
8:20 AM26.6 °F24.8 °F93 %28.82 in6.2 miSouth (190°)2.3 mphSnowLight Snow Showers
8:50 AM26.6 °F24.8 °F93 %28.82 in6.2 miSSW (210°)1.2 mphSnowLight Snow Showers
9:20 AM24.8 °F23.0 °F93 %28.85 in6.2 miSouth (170°)2.3 mphScattered Clouds
9:50 AM23.0 °F21.2 °F93 %28.85 in6.2 miCalmScattered Clouds
10:50 AM21.2 °F19.4 °F93 %28.85 in6.2 miCalmScattered Clouds
11:20 AM21.2 °F19.4 °F93 %28.88 in6.2 miCalmScattered Clouds
11:50 AM23.0 °F21.2 °F93 %28.88 in6.2 miNorth (350°)2.3 mphMostly Cloudy
12:50 PM23.0 °F21.2 °F93 %28.88 in6.2 miVariable2.3 mphMostly Cloudy
1:50 PM21.2 °F19.4 °F93 %28.88 in6.2 miVariable2.3 mphScattered Clouds
2:20 PM21.2 °F17.6 °F86 %28.91 in6.2 miVariable2.3 mphScattered Clouds
2:50 PM19.4 °F17.6 °F93 %28.91 in6.2 miVariable2.3 mphScattered Clouds
3:20 PM17.6 °F15.8 °F93 %28.91 in6.2 miVariable2.3 mphScattered Clouds
3:50 PM21.2 °F19.4 °F93 %28.91 in4.3 miNW (310°)5.8 mphSnowLight Snow Showers
4:20 PM21.2 °F19.4 °F93 %28.91 in6.2 miVariable2.3 mphSnowLight Snow Showers
4:50 PM19.4 °F17.6 °F93 %28.91 in6.2 miVariable2.3 mphMostly Cloudy
5:20 PM21.2 °F19.4 °F93 %28.91 in6.2 miEast (90°)3.5 mphMostly Cloudy
5:50 PM21.2 °F19.4 °F93 %28.91 in1.9 miSE (130°)3.5 mphSnowLight Snow Showers
6:20 PM21.2 °F19.4 °F93 %28.91 in2.5 miVariable2.3 mphSnowLight Snow Showers
6:50 PM21.2 °F19.4 °F93 %28.91 in2.5 miVariable2.3 mphSnowLight Snow Showers
7:50 PM23.0 °F21.2 °F93 %28.91 in5.6 miVariable2.3 mphSnowLight Snow
8:20 PM23.0 °F21.2 °F93 %28.91 in6.2 miVariable2.3 mphSnowLight Snow
8:50 PM23.0 °F21.2 °F93 %28.91 in6.2 miVariable2.3 mphMostly Cloudy
9:50 PM19.4 °F17.6 °F93 %28.94 in6.2 miVariable2.3 mphScattered Clouds
10:20 PM19.4 °F17.6 °F93 %28.94 in6.2 miVariable2.3 mphScattered Clouds
10:50 PM19.4 °F17.6 °F93 %28.94 in6.2 miVariable2.3 mphMostly Cloudy
11:20 PM21.2 °F19.4 °F93 %28.94 in1.9 miVariable2.3 mphSnowLight Snow Showers
11:50 PM21.2 °F19.4 °F93 %28.94 in1.9 miVariable2.3 mphSnowLight Snow Showers
Hourly data recorded from ENRA, located miles away from Rossvoll, Norway







STORIES FROM OUR PARTNERS